createdAt,value
2022-08-10T00:01:53.735Z,99.90
2022-08-10T00:04:23.558Z,99.90
2022-08-10T00:06:53.564Z,99.90
2022-08-10T00:09:22.353Z,99.90
2022-08-10T00:11:51.093Z,99.90
2022-08-10T00:14:19.991Z,99.90
2022-08-10T00:16:50.061Z,99.90
2022-08-10T00:19:18.631Z,99.90
2022-08-10T00:21:48.092Z,99.90
2022-08-10T00:24:16.969Z,99.90
2022-08-10T00:27:52.934Z,99.90
2022-08-10T00:29:34.490Z,99.90
2022-08-10T00:32:04.931Z,99.90
2022-08-10T00:34:34.813Z,99.90
2022-08-10T00:37:03.591Z,99.90
2022-08-10T00:39:36.085Z,99.90
2022-08-10T00:42:08.262Z,99.90
2022-08-10T00:44:38.930Z,99.90
2022-08-10T00:47:36.183Z,99.90
2022-08-10T00:49:59.263Z,99.90
2022-08-10T00:52:31.389Z,99.90
2022-08-10T00:55:03.013Z,99.90
2022-08-10T00:57:32.118Z,99.90
2022-08-10T01:00:01.062Z,99.90
2022-08-10T01:02:33.375Z,99.90
2022-08-10T01:05:05.663Z,99.90
2022-08-10T01:07:55.149Z,99.90
2022-08-10T01:10:38.604Z,99.90
2022-08-10T01:13:11.281Z,99.90
2022-08-10T01:15:50.284Z,99.90
2022-08-10T01:18:27.961Z,99.90
2022-08-10T01:21:18.132Z,99.90
2022-08-10T01:24:25.124Z,99.90
2022-08-10T01:27:27.487Z,99.90
2022-08-10T01:30:04.773Z,99.90
2022-08-10T01:32:43.551Z,99.90
2022-08-10T01:35:16.597Z,99.90
2022-08-10T01:37:52.386Z,99.90
2022-08-10T01:40:26.992Z,99.90
2022-08-10T01:43:08.455Z,99.90
2022-08-10T01:45:45.474Z,99.90
2022-08-10T01:48:29.386Z,99.90
2022-08-10T01:51:04.424Z,99.90
2022-08-10T01:53:41.146Z,99.90
2022-08-10T01:56:13.138Z,99.90
2022-08-10T01:58:43.153Z,99.90
2022-08-10T02:01:17.344Z,99.90
2022-08-10T02:04:01.364Z,99.90
2022-08-10T02:06:37.634Z,99.90
2022-08-10T02:09:09.441Z,99.90
2022-08-10T02:11:55.900Z,99.90
2022-08-10T02:14:33.579Z,99.90
2022-08-10T02:17:07.665Z,99.90
2022-08-10T02:19:37.702Z,99.90
2022-08-10T02:22:35.254Z,99.90
2022-08-10T02:24:58.840Z,99.90
2022-08-10T02:27:29.425Z,99.90
2022-08-10T02:30:00.412Z,99.90
2022-08-10T02:32:36.414Z,99.90
2022-08-10T02:35:18.635Z,99.90
2022-08-10T02:37:54.306Z,99.90
2022-08-10T02:45:15.497Z,99.90
2022-08-10T02:45:17.700Z,99.90
2022-08-10T02:46:18.328Z,99.90
2022-08-10T02:48:59.451Z,99.90
2022-08-10T02:52:06.781Z,99.90
2022-08-10T02:54:28.352Z,99.90
2022-08-10T02:56:59.850Z,99.90
2022-08-10T02:59:40.158Z,99.90
2022-08-10T03:02:27.229Z,99.90
2022-08-10T03:05:04.472Z,99.90
2022-08-10T03:07:43.087Z,99.90
2022-08-10T03:10:17.655Z,99.90
2022-08-10T03:12:50.718Z,99.90
2022-08-10T03:15:22.140Z,99.90
2022-08-10T03:17:58.031Z,99.90
2022-08-10T03:20:36.738Z,99.90
2022-08-10T03:23:11.718Z,99.90
2022-08-10T03:25:40.684Z,99.90
2022-08-10T03:28:10.452Z,99.90
2022-08-10T03:30:46.949Z,99.90
2022-08-10T03:33:16.940Z,99.90
2022-08-10T03:36:43.310Z,99.90
2022-08-10T03:38:35.960Z,99.90
2022-08-10T03:41:07.199Z,99.90
2022-08-10T03:43:36.533Z,99.90
2022-08-10T03:46:09.671Z,99.90
2022-08-10T03:48:49.422Z,99.90
2022-08-10T03:51:21.160Z,99.90
2022-08-10T03:54:05.496Z,99.90
2022-08-10T03:56:41.270Z,99.90
2022-08-10T03:59:13.614Z,99.90
2022-08-10T04:02:52.870Z,99.90
2022-08-10T04:04:31.960Z,99.90
2022-08-10T04:07:03.834Z,99.90
2022-08-10T04:09:53.681Z,99.90
2022-08-10T04:12:22.812Z,99.90
2022-08-10T04:14:53.219Z,99.90
2022-08-10T04:17:56.819Z,99.90
2022-08-10T04:20:19.736Z,99.90
2022-08-10T04:22:53.718Z,99.90
2022-08-10T04:25:24.091Z,99.90
2022-08-10T04:27:54.050Z,99.90
2022-08-10T04:30:23.020Z,99.90
2022-08-10T04:32:55.442Z,99.90
2022-08-10T04:35:25.349Z,99.90
2022-08-10T04:37:58.008Z,99.90
2022-08-10T04:40:30.152Z,99.90
2022-08-10T04:43:11.251Z,99.90
2022-08-10T04:45:47.816Z,99.90
2022-08-10T04:48:40.233Z,99.90
2022-08-10T04:51:17.044Z,99.90
2022-08-10T04:54:04.981Z,99.90
2022-08-10T04:56:38.031Z,99.90
2022-08-10T04:59:07.848Z,99.90
2022-08-10T05:02:27.069Z,99.90
2022-08-10T05:04:36.469Z,99.90
2022-08-10T05:07:09.432Z,99.90
2022-08-10T05:10:04.084Z,99.90
2022-08-10T05:12:29.636Z,99.90
2022-08-10T05:14:58.300Z,99.90
2022-08-10T05:17:26.960Z,99.90
2022-08-10T05:20:05.119Z,99.90
2022-08-10T05:22:39.608Z,99.90
2022-08-10T05:25:12.406Z,99.90
2022-08-10T05:27:41.659Z,99.90
2022-08-10T05:30:13.699Z,99.90
2022-08-10T05:32:56.226Z,99.90
2022-08-10T05:35:28.795Z,99.90
2022-08-10T05:38:18.268Z,99.90
2022-08-10T05:40:49.274Z,99.90
2022-08-10T05:43:19.494Z,99.90
2022-08-10T05:46:19.638Z,99.90
2022-08-10T05:48:41.702Z,99.90
2022-08-10T05:51:28.558Z,99.90
2022-08-10T05:54:01.893Z,99.90
2022-08-10T05:56:55.326Z,99.90
2022-08-10T06:00:10.977Z,99.90
2022-08-10T06:02:30.898Z,99.90
2022-08-10T06:05:08.883Z,99.90
2022-08-10T06:07:41.234Z,99.90
2022-08-10T06:10:31.024Z,99.90
2022-08-10T06:13:30.781Z,99.90
2022-08-10T06:16:07.779Z,99.90
2022-08-10T06:18:38.117Z,99.90
2022-08-10T06:21:09.702Z,99.90
2022-08-10T06:23:39.576Z,99.90
2022-08-10T06:26:14.122Z,99.90
2022-08-10T06:28:56.062Z,99.90
2022-08-10T06:31:48.265Z,99.90
2022-08-10T06:34:24.169Z,99.90
2022-08-10T06:36:54.559Z,99.90
2022-08-10T06:39:33.511Z,99.90
2022-08-10T06:42:16.535Z,99.90
2022-08-10T06:45:04.197Z,99.90
2022-08-10T06:47:40.487Z,99.90
2022-08-10T06:50:15.498Z,99.90
2022-08-10T06:53:05.076Z,99.90
2022-08-10T06:55:50.090Z,99.90
2022-08-10T06:58:26.964Z,99.90
2022-08-10T07:00:58.230Z,99.90
2022-08-10T07:03:33.147Z,99.90
2022-08-10T07:06:02.845Z,99.90
2022-08-10T07:08:34.028Z,99.90
2022-08-10T07:11:06.691Z,99.90
2022-08-10T07:14:15.527Z,99.90
2022-08-10T07:16:32.678Z,99.90
2022-08-10T07:19:02.961Z,99.90
2022-08-10T07:21:32.699Z,99.90
2022-08-10T07:24:04.943Z,99.90
2022-08-10T07:26:35.587Z,99.90
2022-08-10T07:29:05.309Z,99.90
2022-08-10T07:31:56.872Z,99.90
2022-08-10T07:34:29.887Z,99.90
2022-08-10T07:37:03.202Z,99.90
2022-08-10T07:40:03.821Z,99.90
2022-08-10T07:42:25.758Z,99.90
2022-08-10T07:44:54.578Z,99.90
2022-08-10T07:47:53.207Z,99.90
2022-08-10T07:50:25.706Z,99.90
2022-08-10T07:52:56.867Z,99.90
2022-08-10T07:56:05.800Z,99.90
2022-08-10T07:58:17.478Z,99.90
2022-08-10T08:00:47.767Z,99.90
2022-08-10T08:03:21.303Z,99.90
2022-08-10T08:06:02.832Z,99.90
2022-08-10T08:08:34.888Z,99.90
2022-08-10T08:11:05.388Z,99.90
2022-08-10T08:13:35.578Z,99.90
2022-08-10T08:16:20.841Z,99.90
2022-08-10T08:19:28.239Z,99.90
2022-08-10T08:24:07.957Z,99.90
2022-08-10T08:24:37.045Z,99.90
2022-08-10T08:27:07.942Z,95.00
2022-08-10T08:29:38.826Z,86.60
2022-08-10T08:32:08.868Z,90.00
2022-08-10T08:34:43.797Z,68.50
2022-08-10T08:38:28.728Z,84.60
2022-08-10T08:40:05.757Z,60.20
2022-08-10T08:43:12.619Z,59.00
2022-08-10T08:46:01.396Z,57.20
2022-08-10T08:48:47.047Z,50.10
2022-08-10T08:52:07.796Z,50.90
2022-08-10T08:54:33.699Z,51.50
2022-08-10T08:57:07.276Z,48.30
2022-08-10T08:59:53.407Z,45.60
2022-08-10T09:02:36.094Z,44.30
2022-08-10T09:05:14.629Z,43.20
2022-08-10T09:08:24.235Z,45.70
2022-08-10T09:10:57.407Z,43.10
2022-08-10T09:13:31.679Z,40.90
2022-08-10T09:16:15.859Z,37.80
2022-08-10T09:18:50.847Z,42.30
2022-08-10T09:21:25.009Z,38.90
2022-08-10T09:24:06.323Z,43.20
2022-08-10T09:26:44.089Z,39.10
2022-08-10T09:29:17.037Z,35.40
2022-08-10T09:33:05.290Z,35.10
2022-08-10T09:36:23.501Z,38.00
2022-08-10T09:38:02.726Z,34.50
2022-08-10T09:40:59.900Z,35.00
2022-08-10T09:43:42.798Z,34.90
2022-08-10T09:46:22.118Z,31.40
2022-08-10T09:49:02.608Z,29.80
2022-08-10T09:51:45.401Z,34.40
2022-08-10T09:54:26.219Z,32.70
2022-08-10T09:57:41.637Z,33.70
2022-08-10T10:00:03.081Z,33.10
2022-08-10T10:02:43.369Z,31.40
2022-08-10T10:05:29.864Z,31.10
2022-08-10T10:08:07.570Z,30.00
2022-08-10T10:10:47.673Z,31.00
2022-08-10T10:13:41.497Z,32.20
2022-08-10T10:16:34.996Z,29.80
2022-08-10T10:19:17.505Z,29.30
2022-08-10T10:21:55.215Z,29.10
2022-08-10T10:24:34.532Z,29.30
2022-08-10T10:27:16.366Z,28.70
2022-08-10T10:29:56.724Z,29.00
2022-08-10T10:32:38.060Z,28.40
2022-08-10T10:35:17.449Z,29.50
2022-08-10T10:38:10.377Z,29.80
2022-08-10T10:40:56.475Z,29.50
2022-08-10T10:43:40.942Z,31.00
2022-08-10T10:46:22.989Z,29.70
2022-08-10T10:49:01.773Z,28.50
2022-08-10T10:51:34.615Z,28.50
2022-08-10T10:54:10.743Z,27.60
2022-08-10T10:56:51.203Z,29.50
2022-08-10T10:59:55.851Z,27.90
2022-08-10T11:02:32.687Z,27.60
2022-08-10T11:05:12.773Z,27.30
2022-08-10T11:07:53.439Z,27.00
2022-08-10T11:10:33.426Z,27.30
2022-08-10T11:14:28.535Z,29.90
2022-08-10T11:16:17.914Z,29.80
2022-08-10T11:19:04.854Z,26.00
2022-08-10T11:21:44.637Z,28.10
2022-08-10T11:24:46.816Z,28.30
2022-08-10T11:27:22.127Z,29.00
2022-08-10T11:30:00.296Z,27.50
2022-08-10T11:32:38.429Z,29.50
2022-08-10T11:35:20.703Z,27.80
2022-08-10T11:38:33.059Z,28.50
2022-08-10T11:40:54.568Z,28.40
2022-08-10T11:43:27.398Z,29.00
2022-08-10T11:46:07.849Z,27.90
2022-08-10T11:48:53.068Z,29.40
2022-08-10T11:51:31.620Z,27.20
2022-08-10T11:54:06.407Z,26.60
2022-08-10T11:56:45.985Z,29.50
2022-08-10T11:59:34.003Z,29.00
2022-08-10T12:02:04.063Z,27.10
2022-08-10T12:04:34.414Z,29.50
2022-08-10T12:10:02.499Z,29.40
2022-08-10T12:10:11.389Z,31.10
2022-08-10T12:12:47.605Z,34.80
2022-08-10T12:15:22.804Z,31.00
2022-08-10T12:17:56.274Z,29.70
2022-08-10T12:20:32.795Z,30.10
2022-08-10T12:23:11.965Z,27.40
2022-08-10T12:25:56.386Z,26.60
2022-08-10T12:28:50.065Z,26.90
2022-08-10T12:31:26.470Z,26.90
2022-08-10T12:34:07.945Z,26.80
2022-08-10T12:36:42.830Z,25.70
2022-08-10T12:39:18.607Z,28.80
2022-08-10T12:41:58.555Z,27.80
2022-08-10T12:44:41.649Z,27.40
2022-08-10T12:47:21.507Z,27.80
2022-08-10T12:50:13.662Z,28.20
2022-08-10T12:52:59.426Z,28.50
2022-08-10T12:55:40.512Z,26.70
2022-08-10T12:58:58.933Z,26.60
2022-08-10T13:01:16.013Z,29.40
2022-08-10T13:04:22.303Z,27.90
2022-08-10T13:06:41.867Z,28.90
2022-08-10T13:09:11.207Z,26.40
2022-08-10T13:12:36.296Z,28.60
2022-08-10T13:14:38.644Z,29.00
2022-08-10T13:17:09.516Z,28.50
2022-08-10T13:19:56.422Z,28.90
2022-08-10T13:22:30.507Z,27.00
2022-08-10T13:25:02.695Z,25.40
2022-08-10T13:28:01.069Z,26.90
2022-08-10T13:30:37.830Z,25.80
2022-08-10T13:33:08.679Z,26.90
2022-08-10T13:35:38.934Z,26.20
2022-08-10T13:38:10.504Z,27.90
2022-08-10T13:40:39.925Z,27.50
2022-08-10T13:43:11.660Z,27.70
2022-08-10T13:45:47.888Z,27.10
2022-08-10T13:48:21.814Z,26.40
2022-08-10T13:50:53.506Z,25.70
2022-08-10T13:53:23.325Z,26.50
2022-08-10T13:55:56.460Z,27.10
2022-08-10T13:58:31.332Z,27.10
2022-08-10T14:01:01.455Z,27.10
2022-08-10T14:03:35.594Z,26.60
2022-08-10T14:06:08.106Z,26.90
2022-08-10T14:08:39.524Z,27.10
2022-08-10T14:11:13.925Z,27.10
2022-08-10T14:13:47.446Z,26.20
2022-08-10T14:16:17.015Z,27.20
2022-08-10T14:18:46.424Z,28.20
2022-08-10T14:21:15.665Z,27.00
2022-08-10T14:23:52.808Z,28.80
2022-08-10T14:26:26.368Z,25.80
2022-08-10T14:28:59.535Z,25.90
2022-08-10T14:31:33.908Z,28.70
2022-08-10T14:34:08.439Z,28.70
2022-08-10T14:36:43.580Z,27.70
2022-08-10T14:39:21.581Z,27.90
2022-08-10T14:42:03.223Z,28.20
2022-08-10T14:44:48.609Z,28.20
2022-08-10T14:47:53.529Z,30.50
2022-08-10T14:50:32.567Z,29.60
2022-08-10T14:53:09.423Z,28.00
2022-08-10T14:55:59.121Z,29.60
2022-08-10T14:58:31.224Z,28.60
2022-08-10T15:01:02.350Z,30.00
2022-08-10T15:04:01.733Z,28.90
2022-08-10T15:06:30.789Z,30.70
2022-08-10T15:09:12.587Z,31.90
2022-08-10T15:12:15.627Z,29.80
2022-08-10T15:14:42.962Z,32.70
2022-08-10T15:17:17.293Z,31.30
2022-08-10T15:20:03.064Z,34.10
2022-08-10T15:22:38.656Z,32.60
2022-08-10T15:25:18.814Z,34.50
2022-08-10T15:27:54.921Z,35.00
2022-08-10T15:30:31.096Z,33.60
2022-08-10T15:34:02.866Z,32.90
2022-08-10T15:36:33.641Z,32.60
2022-08-10T15:39:05.500Z,33.50
2022-08-10T15:41:58.762Z,35.70
2022-08-10T15:44:38.732Z,34.30
2022-08-10T15:47:11.254Z,35.60
2022-08-10T15:49:51.807Z,34.50
2022-08-10T15:52:39.731Z,36.10
2022-08-10T15:55:42.363Z,37.60
2022-08-10T15:58:10.948Z,37.40
2022-08-10T16:00:41.429Z,37.90
2022-08-10T16:03:17.175Z,38.50
2022-08-10T16:06:02.225Z,40.60
2022-08-10T16:08:56.552Z,39.40
2022-08-10T16:11:38.617Z,38.80
2022-08-10T16:14:15.669Z,41.90
2022-08-10T16:16:51.065Z,41.10
2022-08-10T16:19:34.717Z,41.80
2022-08-10T16:22:35.431Z,41.20
2022-08-10T16:25:01.285Z,40.60
2022-08-10T16:27:36.129Z,41.00
2022-08-10T16:30:07.919Z,42.50
2022-08-10T16:32:38.722Z,43.10
2022-08-10T16:35:12.106Z,45.80
2022-08-10T16:37:57.908Z,44.40
2022-08-10T16:40:30.047Z,49.10
2022-08-10T16:43:04.417Z,45.50
2022-08-10T16:45:38.040Z,50.40
2022-08-10T16:48:10.081Z,50.50
2022-08-10T16:50:45.684Z,53.40
2022-08-10T16:53:19.755Z,53.00
2022-08-10T16:55:52.101Z,54.30
2022-08-10T16:58:27.768Z,54.20
2022-08-10T17:01:03.556Z,55.30
2022-08-10T17:04:08.683Z,56.10
2022-08-10T17:06:32.355Z,57.40
2022-08-10T17:09:05.147Z,60.10
2022-08-10T17:11:35.397Z,61.40
2022-08-10T17:14:09.286Z,62.80
2022-08-10T17:16:41.829Z,62.20
2022-08-10T17:19:16.043Z,65.90
2022-08-10T17:21:52.514Z,65.20
2022-08-10T17:24:27.882Z,65.30
2022-08-10T17:27:01.446Z,68.50
2022-08-10T17:30:03.491Z,68.60
2022-08-10T17:32:44.426Z,69.80
2022-08-10T17:35:23.221Z,70.50
2022-08-10T17:37:59.205Z,73.10
2022-08-10T17:40:33.552Z,75.10
2022-08-10T17:43:04.278Z,76.90
2022-08-10T17:45:47.605Z,79.80
2022-08-10T17:48:22.875Z,80.60
2022-08-10T17:50:54.393Z,86.50
2022-08-10T17:53:26.767Z,84.70
2022-08-10T17:55:59.115Z,73.50
2022-08-10T17:58:31.593Z,79.40
2022-08-10T18:01:38.246Z,80.30
2022-08-10T18:03:55.803Z,76.90
2022-08-10T18:06:25.435Z,83.70
2022-08-10T18:08:59.529Z,84.70
2022-08-10T18:11:32.953Z,91.30
2022-08-10T18:14:06.431Z,89.70
2022-08-10T18:16:36.110Z,93.90
2022-08-10T18:19:13.279Z,93.00
2022-08-10T18:21:46.300Z,92.80
2022-08-10T18:24:20.355Z,97.10
2022-08-10T18:26:54.223Z,96.90
2022-08-10T18:29:28.830Z,94.30
2022-08-10T18:32:03.342Z,95.00
2022-08-10T18:34:35.363Z,97.60
2022-08-10T18:37:07.720Z,98.80
2022-08-10T18:39:42.391Z,99.90
2022-08-10T18:42:16.342Z,99.90
2022-08-10T18:44:50.451Z,99.90
2022-08-10T18:47:27.281Z,99.90
2022-08-10T18:50:02.366Z,99.90
2022-08-10T18:52:35.630Z,99.90
2022-08-10T18:55:23.084Z,99.90
2022-08-10T18:58:12.584Z,99.90
2022-08-10T19:00:58.435Z,99.90
2022-08-10T19:03:56.726Z,99.90
2022-08-10T19:06:52.638Z,99.90
2022-08-10T19:09:47.679Z,99.90
2022-08-10T19:12:44.458Z,99.90
2022-08-10T19:15:40.456Z,99.90
2022-08-10T19:18:32.794Z,99.90
2022-08-10T19:21:12.145Z,99.90
2022-08-10T19:23:55.477Z,99.90
2022-08-10T19:26:43.683Z,99.90
2022-08-10T19:30:10.232Z,99.90
2022-08-10T19:32:27.874Z,99.90
2022-08-10T19:35:05.652Z,99.90
2022-08-10T19:38:00.769Z,99.90
2022-08-10T19:40:43.982Z,99.90
2022-08-10T19:43:59.890Z,99.90
2022-08-10T19:46:27.464Z,99.90
2022-08-10T19:49:04.973Z,99.90
2022-08-10T19:51:57.176Z,99.90
2022-08-10T19:54:35.280Z,99.90
2022-08-10T19:57:12.855Z,99.90
2022-08-10T20:00:15.706Z,99.90
2022-08-10T20:02:48.565Z,99.90
2022-08-10T20:05:31.392Z,99.90
2022-08-10T20:08:09.349Z,99.90
2022-08-10T20:10:46.945Z,99.90
2022-08-10T20:13:22.676Z,99.90
2022-08-10T20:15:59.695Z,99.90
2022-08-10T20:18:36.335Z,99.90
2022-08-10T20:21:13.791Z,99.90
2022-08-10T20:23:55.293Z,99.90
2022-08-10T20:26:26.526Z,99.90
2022-08-10T20:29:16.252Z,99.90
2022-08-10T20:31:57.956Z,99.90
2022-08-10T20:34:33.285Z,99.90
2022-08-10T20:37:07.515Z,99.90
2022-08-10T20:39:49.196Z,99.90
2022-08-10T20:42:23.378Z,99.90
2022-08-10T20:44:56.676Z,99.90
2022-08-10T20:47:57.444Z,99.90
2022-08-10T20:50:38.214Z,99.90
2022-08-10T20:53:12.795Z,99.90
2022-08-10T20:55:53.425Z,99.90
2022-08-10T20:58:53.008Z,99.90
2022-08-10T21:02:07.045Z,99.90
2022-08-10T21:04:44.911Z,99.90
2022-08-10T21:07:58.198Z,99.90
2022-08-10T21:10:33.083Z,99.90
2022-08-10T21:13:17.037Z,99.90
2022-08-10T21:15:59.602Z,99.90
2022-08-10T21:18:51.932Z,99.90
2022-08-10T21:21:58.977Z,99.90
2022-08-10T21:24:34.793Z,99.90
2022-08-10T21:27:15.744Z,99.90
2022-08-10T21:29:56.255Z,99.90
2022-08-10T21:32:36.629Z,99.90
2022-08-10T21:35:15.527Z,99.90
2022-08-10T21:37:58.705Z,99.90
2022-08-10T21:40:43.666Z,99.90
2022-08-10T21:44:01.167Z,99.90
2022-08-10T21:46:59.527Z,99.90
2022-08-10T21:49:57.479Z,99.90
2022-08-10T21:52:53.673Z,99.90
2022-08-10T21:55:57.546Z,99.90
2022-08-10T21:58:50.596Z,99.90
2022-08-10T22:01:45.426Z,99.90
2022-08-10T22:04:40.171Z,99.90
2022-08-10T22:07:36.775Z,99.90
2022-08-10T22:10:26.335Z,99.90
2022-08-10T22:13:17.186Z,99.90
2022-08-10T22:16:12.188Z,99.90
2022-08-10T22:19:03.936Z,99.90
2022-08-10T22:22:27.284Z,99.90
2022-08-10T22:25:29.821Z,99.90
2022-08-10T22:28:17.635Z,99.90
2022-08-10T22:31:30.152Z,99.90
2022-08-10T22:34:33.717Z,99.90
2022-08-10T22:37:36.356Z,99.90
2022-08-10T22:40:25.581Z,99.90
2022-08-10T22:43:15.709Z,99.90
2022-08-10T22:46:25.077Z,99.90
2022-08-10T22:49:01.613Z,99.90
2022-08-10T22:51:47.184Z,99.90
2022-08-10T22:54:38.516Z,99.90
2022-08-10T22:57:25.045Z,99.90
2022-08-10T22:59:53.815Z,99.90
2022-08-10T23:02:32.320Z,99.90
2022-08-10T23:05:08.200Z,99.90
2022-08-10T23:07:47.743Z,99.90
2022-08-10T23:10:19.904Z,99.90
2022-08-10T23:12:52.095Z,99.90
2022-08-10T23:15:44.097Z,99.90
2022-08-10T23:18:34.594Z,99.90
2022-08-10T23:21:04.134Z,99.90
2022-08-10T23:23:40.275Z,99.90
2022-08-10T23:26:12.801Z,99.90
2022-08-10T23:28:59.182Z,99.90
2022-08-10T23:31:57.638Z,99.90
2022-08-10T23:34:27.886Z,99.90
2022-08-10T23:36:59.774Z,99.90
2022-08-10T23:39:34.896Z,99.90
2022-08-10T23:42:07.918Z,99.90
2022-08-10T23:44:37.285Z,99.90
2022-08-10T23:47:07.014Z,99.90
2022-08-10T23:49:37.654Z,99.90
2022-08-10T23:52:13.295Z,99.90
2022-08-10T23:54:49.729Z,99.90
2022-08-10T23:57:21.615Z,99.90
